LIL1004 EDFH-LROP
Flight info
| Callsign | LIL1004 |
|---|---|
| Flight time | N/A |
| Altitude | 37000 |
| Route | ULKIG1S ULKIG Z100 RUDUS T109 HAREM T104 WLD T702 OLETU L603 EBEDA L173 TITIG DCT GOLVA DCT LAKIK DCT RISTU DCT SORDU |
| Aircraft | A320/M-SDE3FGHIRWY/LB1 |
Departure
| Time | N/A |
|---|---|
| Airport | Frankfurt-Hahn Airport (EDFH) |
Arrival
| Time | 2026-05-05 22:37 |
|---|---|
| Airport | Bucharest Henri Coandă International Airport (LROP) |
| Time | Latitude | Longitude | Altitude | Speed | Heading |
|---|---|---|---|---|---|
| 2026-05-05 22:21 | 44.09706 | 25.09545 | 19874 ft | 408 kts | 100° |
| 2026-05-05 22:22 | 44.09118 | 25.13322 | 19737 ft | 393 kts | 99° |
| 2026-05-05 22:22 | 44.08552 | 25.16984 | 19627 ft | 379 kts | 99° |
| 2026-05-05 22:22 | 44.08008 | 25.20504 | 19511 ft | 366 kts | 99° |
| 2026-05-05 22:22 | 44.07479 | 25.23903 | 19388 ft | 353 kts | 99° |
| 2026-05-05 22:23 | 44.06974 | 25.27140 | 19276 ft | 342 kts | 99° |
| 2026-05-05 22:23 | 44.06475 | 25.30350 | 19017 ft | 335 kts | 99° |
| 2026-05-05 22:23 | 44.06029 | 25.33490 | 18683 ft | 331 kts | 94° |
| 2026-05-05 22:23 | 44.06029 | 25.36672 | 18331 ft | 325 kts | 79° |
| 2026-05-05 22:24 | 44.06554 | 25.39677 | 17930 ft | 320 kts | 66° |
| 2026-05-05 22:24 | 44.07543 | 25.42390 | 17552 ft | 314 kts | 54° |
| 2026-05-05 22:24 | 44.08944 | 25.44706 | 17175 ft | 309 kts | 41° |
| 2026-05-05 22:24 | 44.10639 | 25.46477 | 16811 ft | 305 kts | 29° |
| 2026-05-05 22:25 | 44.12579 | 25.47685 | 16438 ft | 303 kts | 17° |
| 2026-05-05 22:25 | 44.14614 | 25.48437 | 16070 ft | 301 kts | 15° |
| 2026-05-05 22:25 | 44.16634 | 25.49171 | 15707 ft | 299 kts | 15° |
| 2026-05-05 22:25 | 44.18646 | 25.49909 | 15355 ft | 297 kts | 15° |
| 2026-05-05 22:26 | 44.19963 | 25.50392 | 15131 ft | 296 kts | 15° |
| 2026-05-05 22:26 | 44.24423 | 25.51654 | 14379 ft | 293 kts | 4° |
| 2026-05-05 22:26 | 44.26446 | 25.51490 | 14057 ft | 293 kts | 356° |
| 2026-05-05 22:27 | 44.28471 | 25.51161 | 13712 ft | 292 kts | 356° |
| 2026-05-05 22:27 | 44.30487 | 25.50841 | 13336 ft | 290 kts | 356° |
| 2026-05-05 22:27 | 44.32472 | 25.50528 | 12967 ft | 288 kts | 356° |
| 2026-05-05 22:27 | 44.34470 | 25.50215 | 12600 ft | 287 kts | 356° |
| 2026-05-05 22:28 | 44.36429 | 25.49910 | 12243 ft | 285 kts | 356° |
| 2026-05-05 22:28 | 44.38408 | 25.49603 | 11852 ft | 285 kts | 355° |
| 2026-05-05 22:28 | 44.40371 | 25.49293 | 11457 ft | 285 kts | 355° |
| 2026-05-05 22:28 | 44.42353 | 25.48978 | 11105 ft | 284 kts | 355° |
| 2026-05-05 22:29 | 44.44292 | 25.48672 | 10768 ft | 282 kts | 355° |
| 2026-05-05 22:29 | 44.46240 | 25.48368 | 10434 ft | 281 kts | 355° |
| 2026-05-05 22:29 | 44.48183 | 25.48062 | 10100 ft | 280 kts | 355° |
| 2026-05-05 22:29 | 44.50100 | 25.48167 | 9766 ft | 275 kts | 19° |
| 2026-05-05 22:30 | 44.51657 | 25.49648 | 9395 ft | 274 kts | 52° |
| 2026-05-05 22:30 | 44.52423 | 25.52084 | 8987 ft | 278 kts | 75° |
| 2026-05-05 22:30 | 44.52728 | 25.54768 | 8568 ft | 281 kts | 83° |
| 2026-05-05 22:30 | 44.52868 | 25.57506 | 8177 ft | 282 kts | 85° |
| 2026-05-05 22:31 | 44.52973 | 25.60263 | 7653 ft | 285 kts | 85° |
| 2026-05-05 22:31 | 44.53096 | 25.63026 | 7058 ft | 282 kts | 84° |
| 2026-05-05 22:31 | 44.53249 | 25.65757 | 6478 ft | 280 kts | 82° |
| 2026-05-05 22:31 | 44.53430 | 25.68459 | 5870 ft | 278 kts | 82° |
| 2026-05-05 22:32 | 44.53629 | 25.71146 | 5268 ft | 276 kts | 82° |
| 2026-05-05 22:32 | 44.53835 | 25.73807 | 4669 ft | 275 kts | 83° |
| 2026-05-05 22:32 | 44.54045 | 25.76477 | 4063 ft | 274 kts | 83° |
| 2026-05-05 22:32 | 44.54253 | 25.79111 | 3603 ft | 267 kts | 83° |
| 2026-05-05 22:33 | 44.54453 | 25.81634 | 3503 ft | 255 kts | 83° |
| 2026-05-05 22:33 | 44.54639 | 25.83995 | 3505 ft | 239 kts | 83° |
| 2026-05-05 22:33 | 44.54815 | 25.86246 | 3504 ft | 227 kts | 83° |
| 2026-05-05 22:33 | 44.54978 | 25.88382 | 3509 ft | 209 kts | 83° |
| 2026-05-05 22:34 | 44.55128 | 25.90333 | 3528 ft | 196 kts | 83° |
| 2026-05-05 22:34 | 44.55274 | 25.92208 | 3508 ft | 192 kts | 83° |
| 2026-05-05 22:34 | 44.55418 | 25.94063 | 3395 ft | 192 kts | 83° |
| 2026-05-05 22:34 | 44.55560 | 25.95900 | 3032 ft | 187 kts | 84° |
| 2026-05-05 22:35 | 44.55703 | 25.97693 | 2622 ft | 182 kts | 84° |
| 2026-05-05 22:35 | 44.55851 | 25.99435 | 2245 ft | 176 kts | 84° |
| 2026-05-05 22:35 | 44.55980 | 26.01059 | 1896 ft | 162 kts | 85° |
| 2026-05-05 22:35 | 44.56102 | 26.02600 | 1469 ft | 157 kts | 85° |
| 2026-05-05 22:36 | 44.56207 | 26.04106 | 1058 ft | 153 kts | 86° |
| 2026-05-05 22:36 | 44.56300 | 26.05571 | 681 ft | 147 kts | 83° |
| 2026-05-05 22:36 | 44.56407 | 26.06967 | 471 ft | 142 kts | 82° |
| 2026-05-05 22:36 | 44.56511 | 26.08318 | 326 ft | 132 kts | 82° |
| 2026-05-05 22:37 | 44.56592 | 26.09374 | 322 ft | 84 kts | 84° |
| 2026-05-05 22:37 | 44.56638 | 26.09986 | 324 ft | 50 kts | 84° |
| 2026-05-05 22:37 | 44.56675 | 26.10457 | 323 ft | 46 kts | 84° |
| 2026-05-05 22:37 | 44.56698 | 26.10720 | 323 ft | 17 kts | 70° |
| 2026-05-05 22:38 | 44.56813 | 26.10757 | 321 ft | 20 kts | 353° |
| 2026-05-05 22:38 | 44.56952 | 26.10737 | 321 ft | 18 kts | 348° |
| 2026-05-05 22:38 | 44.57044 | 26.10618 | 323 ft | 20 kts | 300° |
| 2026-05-05 22:38 | 44.57059 | 26.10413 | 323 ft | 23 kts | 263° |
| 2026-05-05 22:39 | 44.57041 | 26.10175 | 323 ft | 26 kts | 264° |
| 2026-05-05 22:39 | 44.57022 | 26.09932 | 323 ft | 25 kts | 263° |
| 2026-05-05 22:39 | 44.57003 | 26.09677 | 323 ft | 27 kts | 264° |
| 2026-05-05 22:39 | 44.56984 | 26.09440 | 323 ft | 25 kts | 264° |
| 2026-05-05 22:40 | 44.56971 | 26.09264 | 323 ft | 18 kts | 264° |
| 2026-05-05 22:40 | 44.56957 | 26.09077 | 323 ft | 21 kts | 264° |
| 2026-05-05 22:40 | 44.56941 | 26.08859 | 323 ft | 24 kts | 263° |
| 2026-05-05 22:40 | 44.56924 | 26.08648 | 322 ft | 16 kts | 264° |
| 2026-05-05 22:41 | 44.56907 | 26.08543 | 323 ft | 12 kts | 246° |
| 2026-05-05 22:41 | 44.56905 | 26.08417 | 323 ft | 14 kts | 312° |
| 2026-05-05 22:41 | 44.56951 | 26.08326 | 322 ft | 12 kts | 273° |
| 2026-05-05 22:41 | 44.56943 | 26.08212 | 323 ft | 12 kts | 263° |
| 2026-05-05 22:42 | 44.56935 | 26.08116 | 323 ft | 5 kts | 264° |
| 2026-05-05 22:42 | 44.56957 | 26.08089 | 322 ft | 6 kts | 358° |
| 2026-05-05 22:42 | 44.56998 | 26.08082 | 323 ft | 3 kts | 353° |
| 2026-05-05 22:42 | 44.57013 | 26.08080 | 321 ft | 1 kts | 354° |
| 2026-05-05 22:43 | 44.57014 | 26.08080 | 322 ft | 0 kts | 354° |